Time;durP1;ratioP1;P1;durP2;ratioP2;P2;SDS_P1;SDS_P2;PMS_P1;PMS_P2;Temp;Humidity;BMP_temperature;BMP_pressure;BME280_temperature;BME280_humidity;BME280_pressure;Samples;Min_cycle;Max_cycle;Signal;HPM_P1;HPM_P2
2023/07/29 00:00:04;;;;;;;;;;;;;;;;;;4932743;28;93995;-83
2023/07/29 00:02:37;;;;;;;2.40;1.23;;;;;;;;;;4950363;28;92458;-83
2023/07/29 00:05:08;;;;;;;3.00;1.40;;;;;;;;;;4945807;28;92797;-84
2023/07/29 00:07:35;;;;;;;1.83;1.20;;;;;;;;;;4942008;28;93129;-84
2023/07/29 00:10:01;;;;;;;1.65;1.15;;;;;;;;;;4938695;28;92522;-83
2023/07/29 00:12:28;;;;;;;1.80;1.20;;;;;;;;;;4949279;28;93452;-84
2023/07/29 00:14:54;;;;;;;1.83;1.10;;;;;;;;;;4945237;28;93011;-85
2023/07/29 00:17:21;;;;;;;2.20;1.30;;;;;;;;;;4952196;28;93264;-84
2023/07/29 00:19:48;;;;;;;2.47;1.30;;;;;;;;;;4952277;28;95503;-84
2023/07/29 00:22:14;;;;;;;1.75;1.25;;;;;;;;;;4954088;28;92397;-85
2023/07/29 00:24:41;;;;;;;1.92;1.20;;;;;;;;;;4948306;28;92394;-84
2023/07/29 00:27:08;;;;;;;2.15;1.30;;;;;;;;;;4937798;28;96409;-84
2023/07/29 00:29:34;;;;;;;1.50;1.27;;;;;;;;;;4952656;28;92529;-84
2023/07/29 00:32:01;;;;;;;2.78;1.30;;;;;;;;;;4947478;28;95017;-84
2023/07/29 00:34:27;;;;;;;2.60;1.27;;;;;;;;;;4942472;28;94737;-85
2023/07/29 00:36:54;;;;;;;1.98;1.20;;;;;;;;;;4947028;28;91762;-84
2023/07/29 00:39:21;;;;;;;2.55;1.30;;;;;;;;;;4948684;28;93410;-85
2023/07/29 00:41:47;;;;;;;1.60;1.10;;;;;;;;;;4947245;28;92844;-85
2023/07/29 00:44:14;;;;;;;2.47;1.20;;;;;;;;;;4938789;28;95533;-85
2023/07/29 00:46:41;;;;;;;1.67;1.00;;;;;;;;;;4941202;28;93181;-84
2023/07/29 00:49:08;;;;;;;1.45;1.10;;;;;;;;;;4935988;28;92839;-83
2023/07/29 00:51:35;;;;;;;1.83;1.10;;;;;;;;;;4948525;28;93205;-84
2023/07/29 00:54:01;;;;;;;2.03;1.20;;;;;;;;;;4951922;28;94415;-84
2023/07/29 00:56:28;;;;;;;1.88;1.23;;;;;;;;;;4953614;28;92480;-84
2023/07/29 00:58:58;;;;;;;1.83;1.13;;;;;;;;;;4943157;28;96077;-84
2023/07/29 01:01:26;;;;;;;2.88;1.23;;;;;;;;;;4950948;28;91973;-84
2023/07/29 01:03:53;;;;;;;2.00;1.10;;;;;;;;;;4952207;28;93203;-84
2023/07/29 01:06:25;;;;;;;1.48;1.00;;;;;;;;;;4941641;28;93311;-84
2023/07/29 01:08:55;;;;;;;2.55;1.10;;;;;;;;;;4947905;28;94819;-84
2023/07/29 01:11:31;;;;;;;2.28;1.10;;;;;;;;;;4949283;28;95142;-84
2023/07/29 01:14:21;;;;;;;1.98;1.20;;;;;;;;;;4956464;28;95754;-84
2023/07/29 01:16:56;;;;;;;1.73;1.15;;;;;;;;;;4954269;28;92520;-84
2023/07/29 01:19:32;;;;;;;1.73;1.10;;;;;;;;;;4948829;28;95064;-84
2023/07/29 01:21:59;;;;;;;1.25;1.00;;;;;;;;;;4954836;28;92909;-84
2023/07/29 01:24:28;;;;;;;1.58;1.10;;;;;;;;;;4959466;28;94002;-84
2023/07/29 01:26:55;;;;;;;1.75;1.20;;;;;;;;;;4930306;28;95170;-84
2023/07/29 01:29:21;;;;;;;2.88;1.23;;;;;;;;;;4949466;28;92576;-84
2023/07/29 01:31:51;;;;;;;1.45;0.90;;;;;;;;;;4957191;28;92963;-84
2023/07/29 01:34:22;;;;;;;2.17;1.20;;;;;;;;;;4954835;28;98211;-84
2023/07/29 01:36:50;;;;;;;2.15;1.20;;;;;;;;;;4974992;28;92242;-84
2023/07/29 01:39:16;;;;;;;1.85;1.10;;;;;;;;;;4971261;28;93698;-84
2023/07/29 01:41:43;;;;;;;1.45;0.90;;;;;;;;;;4970603;28;95682;-84
2023/07/29 01:44:11;;;;;;;1.20;1.00;;;;;;;;;;4966379;28;92288;-84
2023/07/29 01:46:37;;;;;;;2.28;1.10;;;;;;;;;;4970394;28;94256;-84
2023/07/29 01:49:06;;;;;;;1.75;1.05;;;;;;;;;;4969123;28;92366;-84
2023/07/29 01:51:32;;;;;;;2.70;1.10;;;;;;;;;;4974128;28;94485;-84
2023/07/29 01:53:59;;;;;;;1.13;1.00;;;;;;;;;;4969335;28;92380;-84
2023/07/29 01:56:26;;;;;;;1.83;1.10;;;;;;;;;;4934465;28;93026;-84
2023/07/29 01:58:54;;;;;;;1.63;1.05;;;;;;;;;;4933646;28;95081;-84
2023/07/29 02:01:21;;;;;;;1.90;1.10;;;;;;;;;;4947628;28;95539;-84
2023/07/29 02:03:54;;;;;;;1.55;1.10;;;;;;;;;;4944104;28;92857;-84
2023/07/29 02:06:21;;;;;;;1.30;0.90;;;;;;;;;;4957375;28;93395;-84
2023/07/29 02:08:48;;;;;;;;;;;;;;;;;;4937548;28;92532;-84
2023/07/29 02:11:14;;;;;;;2.83;1.20;;;;;;;;;;4932785;28;102138;-84
2023/07/29 02:13:41;;;;;;;1.25;0.95;;;;;;;;;;4935104;28;95337;-84
2023/07/29 02:16:08;;;;;;;1.17;0.90;;;;;;;;;;4937950;28;91843;-85
2023/07/29 02:18:35;;;;;;;2.08;1.10;;;;;;;;;;4951612;28;93810;-83
2023/07/29 02:21:02;;;;;;;1.92;1.00;;;;;;;;;;4951497;28;94420;-85
2023/07/29 02:23:28;;;;;;;2.08;1.27;;;;;;;;;;4950130;28;95031;-85
2023/07/29 02:25:55;;;;;;;2.10;1.23;;;;;;;;;;4947159;28;95209;-86
2023/07/29 02:28:21;;;;;;;2.08;1.02;;;;;;;;;;4935718;28;93759;-83
2023/07/29 02:31:08;;;;;;;2.45;0.90;;;;;;;;;;4951203;28;93880;-83
2023/07/29 02:33:35;;;;;;;1.55;1.00;;;;;;;;;;4942717;28;92439;-84
2023/07/29 02:36:02;;;;;;;1.50;1.00;;;;;;;;;;4942750;28;92461;-83
2023/07/29 02:38:28;;;;;;;1.52;1.05;;;;;;;;;;4951039;28;94838;-83
2023/07/29 02:40:55;;;;;;;1.50;1.00;;;;;;;;;;4943031;28;92420;-83
2023/07/29 02:43:21;;;;;;;2.28;1.20;;;;;;;;;;4937518;28;93036;-84
2023/07/29 02:45:48;;;;;;;1.25;0.90;;;;;;;;;;4952293;28;93967;-84
2023/07/29 02:48:14;;;;;;;1.80;0.95;;;;;;;;;;4954071;28;95417;-83
2023/07/29 02:50:41;;;;;;;2.28;1.10;;;;;;;;;;4951648;28;95047;-83
2023/07/29 02:53:08;;;;;;;2.55;1.20;;;;;;;;;;4953375;28;94158;-83
2023/07/29 02:55:34;;;;;;;1.63;1.05;;;;;;;;;;4922808;28;92533;-83
2023/07/29 02:58:01;;;;;;;2.13;1.00;;;;;;;;;;4946366;28;92771;-83
2023/07/29 03:00:30;;;;;;;2.35;1.02;;;;;;;;;;4936390;28;96383;-83
2023/07/29 03:02:57;;;;;;;1.73;1.05;;;;;;;;;;4941958;28;93115;-83
2023/07/29 03:05:24;;;;;;;2.35;1.00;;;;;;;;;;4959030;28;95645;-83
2023/07/29 03:07:50;;;;;;;1.23;1.00;;;;;;;;;;4966063;28;95164;-84
2023/07/29 03:10:17;;;;;;;2.55;0.98;;;;;;;;;;4954486;28;92762;-83
2023/07/29 03:12:43;;;;;;;2.22;1.20;;;;;;;;;;4934855;28;98620;-84
2023/07/29 03:15:10;;;;;;;1.73;1.00;;;;;;;;;;4935559;28;92900;-83
2023/07/29 03:17:36;;;;;;;1.92;1.02;;;;;;;;;;4951064;28;95459;-83
2023/07/29 03:20:03;;;;;;;2.38;1.00;;;;;;;;;;4938144;28;92992;-83
2023/07/29 03:22:29;;;;;;;1.52;1.00;;;;;;;;;;4950680;28;92495;-83
2023/07/29 03:24:56;;;;;;;2.30;1.08;;;;;;;;;;4935844;28;93730;-83
2023/07/29 03:27:22;;;;;;;1.60;1.10;;;;;;;;;;4939114;28;95917;-83
2023/07/29 03:29:49;;;;;;;2.03;1.10;;;;;;;;;;4936819;28;93044;-83
2023/07/29 03:32:15;;;;;;;1.80;1.20;;;;;;;;;;4940640;28;95421;-83
2023/07/29 03:34:42;;;;;;;1.75;1.10;;;;;;;;;;4946131;28;92452;-83
2023/07/29 03:37:09;;;;;;;2.05;1.08;;;;;;;;;;4950213;28;95299;-84
2023/07/29 03:39:35;;;;;;;1.33;1.10;;;;;;;;;;4944537;28;93188;-84
2023/07/29 03:42:03;;;;;;;1.23;1.00;;;;;;;;;;4949003;28;92504;-84
2023/07/29 03:44:31;;;;;;;1.80;1.00;;;;;;;;;;4950514;28;93650;-83
2023/07/29 03:46:57;;;;;;;1.65;1.05;;;;;;;;;;4948285;28;92997;-83
2023/07/29 03:49:24;;;;;;;2.30;1.10;;;;;;;;;;4950856;28;93243;-83
2023/07/29 03:51:51;;;;;;;2.00;1.10;;;;;;;;;;4961431;28;94625;-83
2023/07/29 03:54:17;;;;;;;2.67;1.02;;;;;;;;;;4964995;28;92187;-83
2023/07/29 03:56:43;;;;;;;1.52;1.00;;;;;;;;;;4971283;28;93729;-83
2023/07/29 03:59:10;;;;;;;2.80;1.20;;;;;;;;;;4931213;28;95587;-83
2023/07/29 04:01:36;;;;;;;1.67;1.00;;;;;;;;;;4938663;28;94984;-83
2023/07/29 04:04:03;;;;;;;2.15;1.10;;;;;;;;;;4953363;28;97692;-84
2023/07/29 04:06:30;;;;;;;;;;;;;;;;;;4953373;28;96265;-84
2023/07/29 04:08:58;;;;;;;2.45;1.17;;;;;;;;;;4944984;28;93248;-85
2023/07/29 04:11:25;;;;;;;2.45;1.05;;;;;;;;;;4950125;28;95663;-84
2023/07/29 04:13:52;;;;;;;2.30;1.10;;;;;;;;;;4939790;28;95549;-84
2023/07/29 04:16:18;;;;;;;3.03;1.00;;;;;;;;;;4951712;28;92562;-84
2023/07/29 04:18:45;;;;;;;1.27;0.88;;;;;;;;;;4953312;28;94937;-85
2023/07/29 04:21:12;;;;;;;1.17;1.08;;;;;;;;;;4953450;28;92575;-84
2023/07/29 04:23:40;;;;;;;2.08;1.10;;;;;;;;;;4944528;28;92641;-84
2023/07/29 04:26:06;;;;;;;2.63;1.00;;;;;;;;;;4952922;28;95437;-83
2023/07/29 04:28:33;;;;;;;2.47;1.00;;;;;;;;;;4953953;28;92433;-84
2023/07/29 04:30:59;;;;;;;1.45;1.10;;;;;;;;;;4945141;28;92931;-83
2023/07/29 04:33:26;;;;;;;2.33;1.10;;;;;;;;;;4929724;28;95797;-83
2023/07/29 04:35:53;;;;;;;1.88;0.93;;;;;;;;;;4949465;28;92358;-84
2023/07/29 04:38:19;;;;;;;2.00;0.88;;;;;;;;;;4957167;28;92984;-84
2023/07/29 04:40:48;;;;;;;3.40;1.35;;;;;;;;;;4958606;28;93038;-84
2023/07/29 04:43:14;;;;;;;1.90;1.17;;;;;;;;;;4940631;28;94185;-84
2023/07/29 04:45:44;;;;;;;1.98;1.05;;;;;;;;;;4953479;28;93932;-84
2023/07/29 04:48:11;;;;;;;2.15;1.05;;;;;;;;;;4956874;28;92597;-84
2023/07/29 04:50:37;;;;;;;1.30;0.88;;;;;;;;;;4947074;28;95060;-84
2023/07/29 04:53:04;;;;;;;2.25;1.17;;;;;;;;;;4946784;28;93156;-83
2023/07/29 04:55:31;;;;;;;1.73;1.10;;;;;;;;;;4950060;28;93114;-84
2023/07/29 04:57:57;;;;;;;2.13;1.00;;;;;;;;;;4950695;28;92994;-84
2023/07/29 05:00:24;;;;;;;2.45;1.15;;;;;;;;;;4942350;28;92446;-84
2023/07/29 05:02:51;;;;;;;2.35;0.95;;;;;;;;;;4953544;28;92744;-84
2023/07/29 05:05:18;;;;;;;;;;;;;;;;;;4950184;28;93025;-84
2023/07/29 05:07:44;;;;;;;2.58;1.00;;;;;;;;;;4953272;28;91745;-84
2023/07/29 05:10:11;;;;;;;1.88;1.00;;;;;;;;;;4932360;28;92501;-84
2023/07/29 05:12:37;;;;;;;1.20;0.90;;;;;;;;;;4941861;28;96155;-84
2023/07/29 05:15:04;;;;;;;2.05;1.10;;;;;;;;;;4941043;28;96709;-84
2023/07/29 05:17:31;;;;;;;2.03;0.80;;;;;;;;;;4940761;28;97986;-84
2023/07/29 05:19:58;;;;;;;2.28;1.05;;;;;;;;;;4935772;28;95785;-84
2023/07/29 05:22:24;;;;;;;2.28;1.15;;;;;;;;;;4943585;28;92533;-84
2023/07/29 05:24:51;;;;;;;1.27;0.90;;;;;;;;;;4937159;28;95863;-84
2023/07/29 05:27:17;;;;;;;2.30;1.00;;;;;;;;;;4944328;28;92972;-84
2023/07/29 05:29:44;;;;;;;2.45;1.10;;;;;;;;;;4936826;28;92785;-84
2023/07/29 05:32:10;;;;;;;2.25;1.10;;;;;;;;;;4946679;28;92508;-84
2023/07/29 05:34:37;;;;;;;1.75;1.10;;;;;;;;;;4933424;28;92739;-84
2023/07/29 05:37:05;;;;;;;1.90;1.10;;;;;;;;;;4947982;28;93660;-84
2023/07/29 05:39:33;;;;;;;;;;;;;;;;;;4939496;28;98728;-84
2023/07/29 05:42:02;;;;;;;1.30;1.00;;;;;;;;;;4949635;28;93575;-79
2023/07/29 05:44:30;;;;;;;1.60;1.20;;;;;;;;;;4939477;28;95827;-79
2023/07/29 05:46:57;;;;;;;3.88;1.27;;;;;;;;;;4943124;28;92523;-79
2023/07/29 05:49:24;;;;;;;2.72;1.02;;;;;;;;;;4931340;28;92864;-79
2023/07/29 05:51:52;;;;;;;1.73;1.10;;;;;;;;;;4940798;28;93108;-79
2023/07/29 05:54:19;;;;;;;2.03;1.02;;;;;;;;;;4952092;28;92839;-79
2023/07/29 05:56:45;;;;;;;4.00;1.00;;;;;;;;;;4952788;28;93068;-79
2023/07/29 05:59:12;;;;;;;1.65;1.00;;;;;;;;;;4935114;28;96111;-78
2023/07/29 06:01:39;;;;;;;2.38;1.20;;;;;;;;;;4948799;28;92504;-79
2023/07/29 06:04:05;;;;;;;1.95;1.10;;;;;;;;;;4955985;28;94889;-80
2023/07/29 06:06:32;;;;;;;2.33;1.10;;;;;;;;;;4950133;28;92501;-80
2023/07/29 06:08:59;;;;;;;1.58;1.00;;;;;;;;;;4945938;28;95038;-80
2023/07/29 06:11:25;;;;;;;2.00;1.10;;;;;;;;;;4947166;28;95992;-80
2023/07/29 06:13:52;;;;;;;2.05;1.10;;;;;;;;;;4937410;28;92557;-80
2023/07/29 06:16:19;;;;;;;1.95;1.10;;;;;;;;;;4942715;28;92801;-79
2023/07/29 06:18:45;;;;;;;2.13;1.10;;;;;;;;;;4950144;28;95665;-80
2023/07/29 06:21:16;;;;;;;2.60;1.20;;;;;;;;;;4953908;28;91738;-80
2023/07/29 06:23:43;;;;;;;1.80;1.05;;;;;;;;;;4930929;28;92454;-80
2023/07/29 06:26:10;;;;;;;1.73;1.05;;;;;;;;;;4954292;28;94559;-80
2023/07/29 06:28:36;;;;;;;2.55;1.20;;;;;;;;;;4946952;28;95005;-79
2023/07/29 06:31:03;;;;;;;2.00;1.10;;;;;;;;;;4929772;28;93279;-80
2023/07/29 06:33:30;;;;;;;2.03;1.20;;;;;;;;;;4930117;28;92453;-80
2023/07/29 06:35:56;;;;;;;3.08;1.20;;;;;;;;;;4935753;28;93531;-80
2023/07/29 06:38:23;;;;;;;1.30;1.00;;;;;;;;;;4946179;28;93029;-79
2023/07/29 06:40:50;;;;;;;2.17;1.20;;;;;;;;;;4952993;28;92482;-80
2023/07/29 06:43:16;;;;;;;2.58;1.20;;;;;;;;;;4944199;28;92949;-80
2023/07/29 06:45:43;;;;;;;2.30;1.10;;;;;;;;;;4950868;28;92529;-80
2023/07/29 06:48:10;;;;;;;3.03;1.30;;;;;;;;;;4947689;28;92429;-80
2023/07/29 06:50:36;;;;;;;3.47;1.23;;;;;;;;;;4937245;28;92945;-80
2023/07/29 06:53:03;;;;;;;3.05;1.30;;;;;;;;;;4933943;28;95086;-80
2023/07/29 06:55:29;;;;;;;2.28;1.20;;;;;;;;;;4950531;28;95480;-80
2023/07/29 06:57:56;;;;;;;2.13;1.20;;;;;;;;;;4940380;28;93063;-80
2023/07/29 07:00:22;;;;;;;3.72;1.45;;;;;;;;;;4945219;28;92811;-80
2023/07/29 07:02:49;;;;;;;2.20;1.20;;;;;;;;;;4958151;28;92500;-80
2023/07/29 07:05:17;;;;;;;2.00;1.20;;;;;;;;;;4956724;28;94079;-80
2023/07/29 07:07:43;;;;;;;3.45;1.20;;;;;;;;;;4962231;28;93364;-80
2023/07/29 07:10:10;;;;;;;2.67;1.30;;;;;;;;;;4948667;28;92376;-79
2023/07/29 07:12:37;;;;;;;2.63;1.25;;;;;;;;;;4949875;28;93424;-79
2023/07/29 07:15:03;;;;;;;3.50;1.38;;;;;;;;;;4954393;28;92807;-79
2023/07/29 07:17:30;;;;;;;2.63;1.30;;;;;;;;;;4950058;28;95514;-79
2023/07/29 07:19:56;;;;;;;4.45;1.50;;;;;;;;;;4953260;28;93038;-80
2023/07/29 07:22:23;;;;;;;3.53;1.50;;;;;;;;;;4952980;28;95982;-80
2023/07/29 07:24:50;;;;;;;2.08;1.20;;;;;;;;;;4952775;28;93146;-80
2023/07/29 07:27:17;;;;;;;1.73;1.10;;;;;;;;;;4950145;28;92707;-80
2023/07/29 07:29:43;;;;;;;2.45;1.13;;;;;;;;;;4943204;28;95452;-80
2023/07/29 07:32:10;;;;;;;3.55;1.40;;;;;;;;;;4933817;28;92915;-81
2023/07/29 07:34:36;;;;;;;2.83;1.30;;;;;;;;;;4933153;28;92816;-80
2023/07/29 07:37:04;;;;;;;1.95;1.17;;;;;;;;;;4948910;28;93483;-81
2023/07/29 07:39:31;;;;;;;2.53;1.20;;;;;;;;;;4943546;28;93073;-80
2023/07/29 07:41:57;;;;;;;3.38;1.55;;;;;;;;;;4946371;28;95989;-81
2023/07/29 07:44:26;;;;;;;3.70;1.50;;;;;;;;;;4945948;28;93176;-80
2023/07/29 07:46:53;;;;;;;2.65;1.35;;;;;;;;;;4939396;28;92807;-80
2023/07/29 07:49:19;;;;;;;2.53;1.40;;;;;;;;;;4948322;28;94060;-80
2023/07/29 07:51:46;;;;;;;3.50;1.45;;;;;;;;;;4953297;28;93062;-80
2023/07/29 07:54:13;;;;;;;2.17;1.30;;;;;;;;;;4939657;28;96741;-80
2023/07/29 07:56:39;;;;;;;2.97;1.35;;;;;;;;;;4948124;28;96060;-80
2023/07/29 07:59:06;;;;;;;3.22;1.50;;;;;;;;;;4937011;28;91749;-80
2023/07/29 08:01:36;;;;;;;2.78;1.30;;;;;;;;;;4923420;28;93318;-80
2023/07/29 08:04:03;;;;;;;2.63;1.50;;;;;;;;;;4950688;28;93702;-79
2023/07/29 08:06:30;;;;;;;2.35;1.45;;;;;;;;;;4949881;28;95428;-79
2023/07/29 08:08:57;;;;;;;3.20;1.40;;;;;;;;;;4941637;28;94186;-79
2023/07/29 08:11:23;;;;;;;3.83;1.60;;;;;;;;;;4951310;28;93144;-79
2023/07/29 08:13:50;;;;;;;3.63;1.48;;;;;;;;;;4947568;28;93542;-80
2023/07/29 08:16:17;;;;;;;2.63;1.20;;;;;;;;;;4945574;28;93430;-80
2023/07/29 08:18:43;;;;;;;1.83;1.30;;;;;;;;;;4937656;28;92432;-80
2023/07/29 08:21:10;;;;;;;3.53;1.55;;;;;;;;;;4947992;28;93203;-81
2023/07/29 08:23:36;;;;;;;2.65;1.50;;;;;;;;;;4944589;28;92612;-80
2023/07/29 08:26:05;;;;;;;3.85;1.30;;;;;;;;;;4941966;28;92522;-79
2023/07/29 08:28:37;;;;;;;2.47;1.30;;;;;;;;;;4948404;28;92847;-79
2023/07/29 08:31:04;;;;;;;3.50;1.40;;;;;;;;;;4933760;28;95630;-80
2023/07/29 08:33:31;;;;;;;2.97;1.60;;;;;;;;;;4944108;28;92995;-80
2023/07/29 08:35:57;;;;;;;1.90;1.40;;;;;;;;;;4931587;28;94195;-79
2023/07/29 08:38:24;;;;;;;2.90;1.40;;;;;;;;;;4945705;28;92535;-79
2023/07/29 08:41:14;;;;;;;2.47;1.40;;;;;;;;;;4951277;28;94190;-80
2023/07/29 08:43:43;;;;;;;3.53;1.30;;;;;;;;;;4949655;28;93219;-80
2023/07/29 08:46:10;;;;;;;3.33;1.63;;;;;;;;;;4954025;28;92640;-79
2023/07/29 08:48:41;;;;;;;3.42;1.60;;;;;;;;;;4956592;28;92888;-79
2023/07/29 08:51:08;;;;;;;2.35;1.23;;;;;;;;;;4941249;28;95290;-80
2023/07/29 08:53:35;;;;;;;3.03;1.60;;;;;;;;;;4955573;28;92628;-80
2023/07/29 08:56:02;;;;;;;3.20;1.60;;;;;;;;;;4953701;28;94877;-79
2023/07/29 08:58:29;;;;;;;3.90;1.50;;;;;;;;;;4945161;28;92496;-79
2023/07/29 09:00:55;;;;;;;3.72;1.73;;;;;;;;;;4947273;28;92905;-80
2023/07/29 09:03:22;;;;;;;3.30;1.50;;;;;;;;;;4949530;28;94266;-79
2023/07/29 09:05:50;;;;;;;2.88;1.63;;;;;;;;;;4945333;28;92481;-79
2023/07/29 09:08:17;;;;;;;3.38;1.52;;;;;;;;;;4953751;28;92819;-78
2023/07/29 09:10:43;;;;;;;3.92;1.60;;;;;;;;;;4944170;28;93195;-79
2023/07/29 09:13:10;;;;;;;3.05;1.40;;;;;;;;;;4950329;28;91749;-80
2023/07/29 09:15:37;;;;;;;2.15;1.20;;;;;;;;;;4954700;28;92651;-79
2023/07/29 09:18:10;;;;;;;2.38;1.50;;;;;;;;;;4950696;28;93727;-80
2023/07/29 09:20:37;;;;;;;3.33;1.67;;;;;;;;;;4953664;28;94858;-79
2023/07/29 09:23:06;;;;;;;2.65;1.40;;;;;;;;;;4943817;28;92508;-80
2023/07/29 09:25:33;;;;;;;2.25;1.33;;;;;;;;;;4951428;28;92495;-80
2023/07/29 09:28:00;;;;;;;2.95;1.50;;;;;;;;;;4955571;28;92433;-80
2023/07/29 09:30:27;;;;;;;2.92;1.50;;;;;;;;;;4943804;28;92887;-80
2023/07/29 09:32:54;;;;;;;2.67;1.50;;;;;;;;;;4941026;28;92404;-79
2023/07/29 09:35:21;;;;;;;3.10;1.50;;;;;;;;;;4946795;28;92741;-80
2023/07/29 09:37:48;;;;;;;2.45;1.40;;;;;;;;;;4964552;28;91617;-80
2023/07/29 09:40:18;;;;;;;2.42;1.58;;;;;;;;;;4969762;28;92721;-79
2023/07/29 09:42:52;;;;;;;1.98;1.40;;;;;;;;;;4966882;28;93232;-79
2023/07/29 09:45:22;;;;;;;2.80;1.50;;;;;;;;;;4956980;28;94939;-80
2023/07/29 09:47:49;;;;;;;3.35;1.60;;;;;;;;;;4963863;28;95237;-79
2023/07/29 09:50:16;;;;;;;2.70;1.50;;;;;;;;;;4960976;28;92393;-80
2023/07/29 09:52:43;;;;;;;3.38;1.70;;;;;;;;;;4960757;28;93086;-80
2023/07/29 09:55:12;;;;;;;2.67;1.60;;;;;;;;;;4961148;28;92477;-79
2023/07/29 09:57:40;;;;;;;2.50;1.70;;;;;;;;;;4956990;28;93088;-79
2023/07/29 10:00:10;;;;;;;1.92;1.40;;;;;;;;;;4938959;28;92414;-79
2023/07/29 10:02:41;;;;;;;3.65;1.60;;;;;;;;;;4938382;28;91874;-80
2023/07/29 10:05:08;;;;;;;3.42;1.70;;;;;;;;;;4943129;28;92441;-79
2023/07/29 10:07:39;;;;;;;2.95;1.50;;;;;;;;;;4952357;28;94708;-80
2023/07/29 10:10:07;;;;;;;2.70;1.33;;;;;;;;;;4932590;28;98694;-80
2023/07/29 10:12:34;;;;;;;2.30;1.40;;;;;;;;;;4946145;28;92487;-80
2023/07/29 10:15:02;;;;;;;2.85;1.55;;;;;;;;;;4944186;28;93309;-80
2023/07/29 10:17:31;;;;;;;2.55;1.60;;;;;;;;;;4957779;28;93676;-80
2023/07/29 10:19:58;;;;;;;2.58;1.63;;;;;;;;;;4955189;28;92489;-80
2023/07/29 10:22:27;;;;;;;2.22;1.50;;;;;;;;;;4947870;28;92588;-80
2023/07/29 10:24:56;;;;;;;2.17;1.45;;;;;;;;;;4954444;28;93477;-80
2023/07/29 10:27:24;;;;;;;2.42;1.50;;;;;;;;;;4950401;28;92954;-79
2023/07/29 10:29:51;;;;;;;2.83;1.60;;;;;;;;;;4932199;28;93309;-80
2023/07/29 10:32:19;;;;;;;3.15;1.60;;;;;;;;;;4949582;28;92910;-80
2023/07/29 10:34:45;;;;;;;2.50;1.60;;;;;;;;;;4931876;28;94921;-79
2023/07/29 10:37:12;;;;;;;2.75;1.50;;;;;;;;;;4950209;28;94263;-79
2023/07/29 10:39:40;;;;;;;2.40;1.60;;;;;;;;;;4946363;28;92659;-79
2023/07/29 10:42:07;;;;;;;3.92;1.70;;;;;;;;;;4947557;28;92678;-79
2023/07/29 10:44:39;;;;;;;2.13;1.50;;;;;;;;;;4950860;28;93071;-79
2023/07/29 10:47:12;;;;;;;2.13;1.40;;;;;;;;;;4954092;28;92493;-79
2023/07/29 10:49:45;;;;;;;2.53;1.40;;;;;;;;;;4951127;28;94274;-79
2023/07/29 10:52:16;;;;;;;2.45;1.40;;;;;;;;;;4949674;28;91734;-79
2023/07/29 10:54:47;;;;;;;3.08;1.50;;;;;;;;;;4944941;28;92431;-79
2023/07/29 10:57:15;;;;;;;2.47;1.40;;;;;;;;;;4940602;28;94517;-79
2023/07/29 10:59:55;;;;;;;1.92;1.30;;;;;;;;;;4933280;28;94883;-78
2023/07/29 11:02:27;;;;;;;3.15;1.70;;;;;;;;;;4943408;28;94028;-79
2023/07/29 11:04:54;;;;;;;2.85;1.52;;;;;;;;;;4951226;28;93075;-79
2023/07/29 11:07:27;;;;;;;2.55;1.30;;;;;;;;;;4952078;28;92524;-79
2023/07/29 11:09:56;;;;;;;3.08;1.50;;;;;;;;;;4946316;28;95403;-79
2023/07/29 11:12:48;;;;;;;2.35;1.52;;;;;;;;;;4941630;28;93015;-79
2023/07/29 11:15:19;;;;;;;2.22;1.50;;;;;;;;;;4927093;28;92700;-79
2023/07/29 11:17:49;;;;;;;2.13;1.40;;;;;;;;;;4939042;28;92400;-79
2023/07/29 11:20:16;;;;;;;2.70;1.40;;;;;;;;;;4921694;28;92680;-79
2023/07/29 11:22:43;;;;;;;2.50;1.30;;;;;;;;;;4939645;28;92873;-79
2023/07/29 11:25:11;;;;;;;2.90;1.60;;;;;;;;;;4939128;28;96219;-79
2023/07/29 11:27:38;;;;;;;2.75;1.40;;;;;;;;;;4946150;28;92819;-79
2023/07/29 11:30:06;;;;;;;2.40;1.30;;;;;;;;;;4941697;28;94744;-79
2023/07/29 11:32:32;;;;;;;2.63;1.50;;;;;;;;;;4948719;28;92532;-79
2023/07/29 11:35:03;;;;;;;2.03;1.40;;;;;;;;;;4933494;28;92935;-78
2023/07/29 11:37:30;;;;;;;2.78;1.50;;;;;;;;;;4940699;28;93203;-79
2023/07/29 11:39:56;;;;;;;2.50;1.50;;;;;;;;;;4944954;28;92541;-79
2023/07/29 11:42:23;;;;;;;3.72;1.60;;;;;;;;;;4952571;28;92423;-79
2023/07/29 11:44:50;;;;;;;3.35;1.70;;;;;;;;;;4958921;28;93146;-79
2023/07/29 11:47:16;;;;;;;2.25;1.30;;;;;;;;;;4955194;28;92491;-79
2023/07/29 11:49:43;;;;;;;2.35;1.50;;;;;;;;;;4952406;28;95201;-79
2023/07/29 11:52:10;;;;;;;3.13;1.58;;;;;;;;;;4952706;28;93939;-79
2023/07/29 11:54:37;;;;;;;2.83;1.50;;;;;;;;;;4949439;28;92976;-79
2023/07/29 11:57:06;;;;;;;3.50;1.73;;;;;;;;;;4948780;28;93339;-79
2023/07/29 11:59:33;;;;;;;2.80;1.60;;;;;;;;;;4933886;28;92450;-79
2023/07/29 12:02:19;;;;;;;2.88;1.50;;;;;;;;;;4947838;28;92830;-79
2023/07/29 12:04:47;;;;;;;2.60;1.45;;;;;;;;;;4949494;28;95927;-79
2023/07/29 12:07:14;;;;;;;;;;;;;;;;;;4949494;28;92075;-79
2023/07/29 12:09:42;;;;;;;2.17;1.42;;;;;;;;;;4943382;28;92935;-78
2023/07/29 12:12:08;;;;;;;2.90;1.42;;;;;;;;;;4950015;28;93518;-79
2023/07/29 12:14:35;;;;;;;2.33;1.50;;;;;;;;;;4936219;28;94803;-78
2023/07/29 12:17:02;;;;;;;2.22;1.48;;;;;;;;;;4952641;28;93311;-79
2023/07/29 12:19:32;;;;;;;2.25;1.40;;;;;;;;;;4952672;28;92427;-78
2023/07/29 12:21:59;;;;;;;1.83;1.30;;;;;;;;;;4940376;28;92959;-79
2023/07/29 12:24:25;;;;;;;2.15;1.30;;;;;;;;;;4968029;28;92810;-79
2023/07/29 12:26:52;;;;;;;2.67;1.40;;;;;;;;;;4941652;28;92564;-78
2023/07/29 12:29:22;;;;;;;2.20;1.20;;;;;;;;;;4953194;28;92441;-79
2023/07/29 12:31:49;;;;;;;2.35;1.30;;;;;;;;;;4951702;28;92732;-78
2023/07/29 12:34:19;;;;;;;1.50;1.13;;;;;;;;;;4937001;28;92471;-79
2023/07/29 12:36:48;;;;;;;2.50;1.30;;;;;;;;;;4951582;28;92726;-79
2023/07/29 12:39:30;;;;;;;2.67;1.20;;;;;;;;;;4951362;28;94893;-79
2023/07/29 12:41:58;;;;;;;1.92;1.30;;;;;;;;;;4952667;28;95086;-78
2023/07/29 12:44:34;;;;;;;1.75;1.30;;;;;;;;;;4952369;28;93734;-79
2023/07/29 12:47:02;;;;;;;2.20;1.30;;;;;;;;;;4952264;28;92432;-79
2023/07/29 12:49:29;;;;;;;1.85;1.30;;;;;;;;;;4945534;28;92785;-79
2023/07/29 12:51:56;;;;;;;1.55;1.10;;;;;;;;;;4951941;28;92965;-79
2023/07/29 12:54:23;;;;;;;3.03;1.23;;;;;;;;;;4949342;28;92424;-79
2023/07/29 12:56:49;;;;;;;1.33;1.10;;;;;;;;;;4941251;28;95336;-79
2023/07/29 12:59:16;;;;;;;2.63;1.20;;;;;;;;;;4949689;28;93323;-79
2023/07/29 13:01:43;;;;;;;2.60;1.27;;;;;;;;;;4952847;28;93309;-79
2023/07/29 13:04:09;;;;;;;2.53;1.20;;;;;;;;;;4948572;28;94788;-79
2023/07/29 13:06:36;;;;;;;1.95;1.20;;;;;;;;;;4950639;28;92628;-79
2023/07/29 13:09:03;;;;;;;2.05;1.20;;;;;;;;;;4946510;28;94161;-79
2023/07/29 13:11:32;;;;;;;3.72;1.20;;;;;;;;;;4936321;28;93098;-79
2023/07/29 13:14:00;;;;;;;1.70;1.20;;;;;;;;;;4942635;28;92531;-79
2023/07/29 13:16:27;;;;;;;2.65;1.30;;;;;;;;;;4945857;28;92899;-79
2023/07/29 13:18:54;;;;;;;1.50;1.10;;;;;;;;;;4944615;28;93121;-79
2023/07/29 13:21:21;;;;;;;1.90;1.27;;;;;;;;;;4951140;28;95461;-79
2023/07/29 13:23:47;;;;;;;1.67;1.20;;;;;;;;;;4948803;28;93271;-79
2023/07/29 13:26:14;;;;;;;1.73;1.10;;;;;;;;;;4946089;28;92884;-79
2023/07/29 13:28:40;;;;;;;2.25;1.20;;;;;;;;;;4949718;28;95504;-80
2023/07/29 13:31:07;;;;;;;1.65;1.13;;;;;;;;;;4945929;28;93151;-80
2023/07/29 13:33:34;;;;;;;2.75;1.30;;;;;;;;;;4942183;28;93077;-80
2023/07/29 13:36:02;;;;;;;2.28;1.10;;;;;;;;;;4942604;28;92611;-80
2023/07/29 13:38:29;;;;;;;1.33;1.05;;;;;;;;;;4950787;28;93934;-80
2023/07/29 13:40:56;;;;;;;1.98;1.23;;;;;;;;;;4955657;28;92759;-80
2023/07/29 13:43:23;;;;;;;1.83;1.20;;;;;;;;;;4953582;28;93097;-79
2023/07/29 13:45:50;;;;;;;1.45;1.10;;;;;;;;;;4944411;28;91747;-79
2023/07/29 13:48:17;;;;;;;2.20;1.10;;;;;;;;;;4952606;28;92916;-78
2023/07/29 13:50:44;;;;;;;1.88;1.20;;;;;;;;;;4950625;28;92951;-79
2023/07/29 13:53:11;;;;;;;2.00;1.20;;;;;;;;;;4938661;28;94835;-79
2023/07/29 13:55:37;;;;;;;2.22;1.10;;;;;;;;;;4950527;28;95724;-79
2023/07/29 13:58:04;;;;;;;2.40;1.10;;;;;;;;;;4947127;28;93088;-79
2023/07/29 14:00:31;;;;;;;;;;;;;;;;;;4943879;28;92546;-79
2023/07/29 14:02:58;;;;;;;2.03;1.02;;;;;;;;;;4952315;28;95197;-79
2023/07/29 14:05:25;;;;;;;1.90;1.10;;;;;;;;;;4942418;28;92416;-79
2023/07/29 14:07:51;;;;;;;1.95;1.15;;;;;;;;;;4947885;28;92788;-79
2023/07/29 14:10:18;;;;;;;1.98;1.15;;;;;;;;;;4952741;28;95062;-79
2023/07/29 14:12:44;;;;;;;2.28;1.20;;;;;;;;;;4948408;28;93081;-78
2023/07/29 14:15:11;;;;;;;1.95;1.20;;;;;;;;;;4942373;28;94102;-79
2023/07/29 14:17:37;;;;;;;1.23;1.02;;;;;;;;;;4950809;28;98163;-79
2023/07/29 14:20:05;;;;;;;2.75;1.33;;;;;;;;;;4952508;28;92864;-79
2023/07/29 14:22:31;;;;;;;1.75;1.02;;;;;;;;;;4946825;28;93731;-79
2023/07/29 14:24:58;;;;;;;2.42;1.15;;;;;;;;;;4947010;28;93136;-79
2023/07/29 14:27:27;;;;;;;2.13;1.20;;;;;;;;;;4942826;28;92654;-79
2023/07/29 14:29:53;;;;;;;1.80;1.15;;;;;;;;;;4932074;28;95711;-79
2023/07/29 14:32:20;;;;;;;1.80;1.50;;;;;;;;;;4941989;28;92536;-79
2023/07/29 14:34:49;;;;;;;1.73;1.13;;;;;;;;;;4934080;28;92693;-81
2023/07/29 14:37:15;;;;;;;1.50;1.20;;;;;;;;;;4933768;28;93156;-78
2023/07/29 14:39:42;;;;;;;1.80;1.30;;;;;;;;;;4921234;28;92383;-79
2023/07/29 14:42:09;;;;;;;1.73;1.00;;;;;;;;;;4941368;28;94813;-79
2023/07/29 14:44:35;;;;;;;2.30;1.20;;;;;;;;;;4950283;28;93009;-79
2023/07/29 14:47:02;;;;;;;1.92;1.20;;;;;;;;;;4953845;28;92435;-79